sensor_id;sensor_type;location;lat;lon;timestamp;P1;durP1;ratioP1;P2;durP2;ratioP2
34035;SDS011;63481;52.588;22.472;2023-03-11T00:00:22;22.50;;;14.70;;
34035;SDS011;63481;52.588;22.472;2023-03-11T00:01:28;24.00;;;14.60;;
34035;SDS011;63481;52.588;22.472;2023-03-11T00:02:21;24.00;;;15.10;;
34035;SDS011;63481;52.588;22.472;2023-03-11T00:03:14;22.90;;;13.90;;
34035;SDS011;63481;52.588;22.472;2023-03-11T00:04:08;22.60;;;14.10;;
34035;SDS011;63481;52.588;22.472;2023-03-11T00:05:01;21.40;;;13.70;;
34035;SDS011;63481;52.588;22.472;2023-03-11T00:05:54;22.90;;;13.30;;
34035;SDS011;63481;52.588;22.472;2023-03-11T00:06:47;21.50;;;13.40;;
34035;SDS011;63481;52.588;22.472;2023-03-11T00:07:40;21.90;;;13.90;;
34035;SDS011;63481;52.588;22.472;2023-03-11T00:08:33;18.90;;;12.00;;
34035;SDS011;63481;52.588;22.472;2023-03-11T00:09:25;21.70;;;12.90;;
34035;SDS011;63481;52.588;22.472;2023-03-11T00:10:20;19.50;;;12.60;;
34035;SDS011;63481;52.588;22.472;2023-03-11T00:11:15;20.30;;;12.70;;
34035;SDS011;63481;52.588;22.472;2023-03-11T00:12:08;20.00;;;11.90;;
34035;SDS011;63481;52.588;22.472;2023-03-11T00:13:01;20.50;;;12.60;;
34035;SDS011;63481;52.588;22.472;2023-03-11T00:13:55;19.60;;;12.70;;
34035;SDS011;63481;52.588;22.472;2023-03-11T00:14:48;21.40;;;13.10;;
34035;SDS011;63481;52.588;22.472;2023-03-11T00:15:42;21.20;;;12.20;;
34035;SDS011;63481;52.588;22.472;2023-03-11T00:16:36;20.20;;;10.30;;
34035;SDS011;63481;52.588;22.472;2023-03-11T00:17:29;14.30;;;8.20;;
34035;SDS011;63481;52.588;22.472;2023-03-11T00:18:22;16.30;;;7.70;;
34035;SDS011;63481;52.588;22.472;2023-03-11T00:19:21;16.10;;;7.10;;
34035;SDS011;63481;52.588;22.472;2023-03-11T00:20:15;13.00;;;6.30;;
34035;SDS011;63481;52.588;22.472;2023-03-11T00:21:14;12.40;;;6.20;;
34035;SDS011;63481;52.588;22.472;2023-03-11T00:22:08;11.70;;;6.10;;
34035;SDS011;63481;52.588;22.472;2023-03-11T00:23:01;9.10;;;3.70;;
34035;SDS011;63481;52.588;22.472;2023-03-11T00:23:54;7.20;;;2.70;;
34035;SDS011;63481;52.588;22.472;2023-03-11T00:24:47;7.70;;;3.10;;
34035;SDS011;63481;52.588;22.472;2023-03-11T00:25:41;3.40;;;1.90;;
34035;SDS011;63481;52.588;22.472;2023-03-11T00:26:35;6.10;;;3.00;;
34035;SDS011;63481;52.588;22.472;2023-03-11T00:27:28;5.00;;;2.10;;
34035;SDS011;63481;52.588;22.472;2023-03-11T00:28:20;6.70;;;1.70;;
34035;SDS011;63481;52.588;22.472;2023-03-11T00:29:16;3.30;;;1.70;;
34035;SDS011;63481;52.588;22.472;2023-03-11T00:30:09;4.60;;;1.90;;
34035;SDS011;63481;52.588;22.472;2023-03-11T00:31:03;3.90;;;1.90;;
34035;SDS011;63481;52.588;22.472;2023-03-11T00:31:56;4.20;;;2.10;;
34035;SDS011;63481;52.588;22.472;2023-03-11T00:32:49;3.30;;;1.60;;
34035;SDS011;63481;52.588;22.472;2023-03-11T00:33:44;3.00;;;1.90;;
34035;SDS011;63481;52.588;22.472;2023-03-11T00:34:38;4.20;;;1.50;;
34035;SDS011;63481;52.588;22.472;2023-03-11T00:35:31;3.50;;;1.50;;
34035;SDS011;63481;52.588;22.472;2023-03-11T00:36:28;5.50;;;2.10;;
34035;SDS011;63481;52.588;22.472;2023-03-11T00:37:22;3.90;;;1.90;;
34035;SDS011;63481;52.588;22.472;2023-03-11T00:38:16;3.70;;;1.90;;
34035;SDS011;63481;52.588;22.472;2023-03-11T00:39:09;5.60;;;2.20;;
34035;SDS011;63481;52.588;22.472;2023-03-11T00:40:02;6.30;;;1.80;;
34035;SDS011;63481;52.588;22.472;2023-03-11T00:41:00;6.20;;;1.90;;
34035;SDS011;63481;52.588;22.472;2023-03-11T00:41:56;3.20;;;1.60;;
34035;SDS011;63481;52.588;22.472;2023-03-11T00:42:49;3.00;;;1.80;;
34035;SDS011;63481;52.588;22.472;2023-03-11T00:43:42;3.90;;;1.80;;
34035;SDS011;63481;52.588;22.472;2023-03-11T00:44:35;5.30;;;2.30;;
34035;SDS011;63481;52.588;22.472;2023-03-11T00:45:28;10.60;;;4.70;;
34035;SDS011;63481;52.588;22.472;2023-03-11T00:46:20;9.20;;;3.20;;
34035;SDS011;63481;52.588;22.472;2023-03-11T00:47:13;5.70;;;2.30;;
34035;SDS011;63481;52.588;22.472;2023-03-11T00:48:06;4.40;;;1.80;;
34035;SDS011;63481;52.588;22.472;2023-03-11T00:49:00;4.50;;;2.00;;
34035;SDS011;63481;52.588;22.472;2023-03-11T00:49:53;5.60;;;2.50;;
34035;SDS011;63481;52.588;22.472;2023-03-11T00:50:46;5.30;;;2.20;;
34035;SDS011;63481;52.588;22.472;2023-03-11T00:51:39;3.60;;;1.90;;
34035;SDS011;63481;52.588;22.472;2023-03-11T00:52:31;4.00;;;2.10;;
34035;SDS011;63481;52.588;22.472;2023-03-11T00:53:24;3.10;;;1.70;;
34035;SDS011;63481;52.588;22.472;2023-03-11T00:54:17;4.30;;;1.70;;
34035;SDS011;63481;52.588;22.472;2023-03-11T00:55:09;4.00;;;1.80;;
34035;SDS011;63481;52.588;22.472;2023-03-11T00:56:06;4.60;;;2.30;;
34035;SDS011;63481;52.588;22.472;2023-03-11T00:57:00;4.50;;;2.00;;
34035;SDS011;63481;52.588;22.472;2023-03-11T00:57:53;2.50;;;1.60;;
34035;SDS011;63481;52.588;22.472;2023-03-11T00:58:49;6.00;;;1.90;;
34035;SDS011;63481;52.588;22.472;2023-03-11T00:59:42;3.00;;;1.70;;
34035;SDS011;63481;52.588;22.472;2023-03-11T01:00:35;4.10;;;1.80;;
34035;SDS011;63481;52.588;22.472;2023-03-11T01:01:28;4.00;;;1.70;;
34035;SDS011;63481;52.588;22.472;2023-03-11T01:02:22;3.20;;;1.90;;
34035;SDS011;63481;52.588;22.472;2023-03-11T01:03:15;5.30;;;2.10;;
34035;SDS011;63481;52.588;22.472;2023-03-11T01:04:07;5.50;;;2.20;;
34035;SDS011;63481;52.588;22.472;2023-03-11T01:05:00;5.90;;;1.90;;
34035;SDS011;63481;52.588;22.472;2023-03-11T01:05:53;3.70;;;1.80;;
34035;SDS011;63481;52.588;22.472;2023-03-11T01:06:45;4.60;;;2.20;;
34035;SDS011;63481;52.588;22.472;2023-03-11T01:07:38;4.70;;;2.20;;
34035;SDS011;63481;52.588;22.472;2023-03-11T01:08:31;3.80;;;2.10;;
34035;SDS011;63481;52.588;22.472;2023-03-11T01:09:24;4.50;;;2.10;;
34035;SDS011;63481;52.588;22.472;2023-03-11T01:10:17;3.80;;;2.40;;
34035;SDS011;63481;52.588;22.472;2023-03-11T01:11:10;5.40;;;2.20;;
34035;SDS011;63481;52.588;22.472;2023-03-11T01:12:03;5.20;;;2.40;;
34035;SDS011;63481;52.588;22.472;2023-03-11T01:12:56;6.60;;;2.40;;
34035;SDS011;63481;52.588;22.472;2023-03-11T01:13:49;5.30;;;2.80;;
34035;SDS011;63481;52.588;22.472;2023-03-11T01:14:41;5.90;;;2.70;;
34035;SDS011;63481;52.588;22.472;2023-03-11T01:15:35;4.60;;;2.70;;
34035;SDS011;63481;52.588;22.472;2023-03-11T01:16:28;5.40;;;2.80;;
34035;SDS011;63481;52.588;22.472;2023-03-11T01:17:21;5.90;;;3.10;;
34035;SDS011;63481;52.588;22.472;2023-03-11T01:18:14;8.00;;;3.60;;
34035;SDS011;63481;52.588;22.472;2023-03-11T01:19:07;7.40;;;3.50;;
34035;SDS011;63481;52.588;22.472;2023-03-11T01:20:00;5.20;;;3.00;;
34035;SDS011;63481;52.588;22.472;2023-03-11T01:20:53;5.50;;;2.90;;
34035;SDS011;63481;52.588;22.472;2023-03-11T01:21:46;5.10;;;3.10;;
34035;SDS011;63481;52.588;22.472;2023-03-11T01:22:38;9.60;;;3.20;;
34035;SDS011;63481;52.588;22.472;2023-03-11T01:23:32;5.00;;;3.10;;
34035;SDS011;63481;52.588;22.472;2023-03-11T01:24:24;7.10;;;3.70;;
34035;SDS011;63481;52.588;22.472;2023-03-11T01:25:18;7.20;;;3.50;;
34035;SDS011;63481;52.588;22.472;2023-03-11T01:26:12;6.80;;;3.80;;
34035;SDS011;63481;52.588;22.472;2023-03-11T01:27:05;7.80;;;4.00;;
34035;SDS011;63481;52.588;22.472;2023-03-11T01:27:58;7.70;;;4.00;;
34035;SDS011;63481;52.588;22.472;2023-03-11T01:28:51;8.50;;;4.40;;
34035;SDS011;63481;52.588;22.472;2023-03-11T01:29:44;10.10;;;5.20;;
34035;SDS011;63481;52.588;22.472;2023-03-11T01:30:37;8.40;;;4.90;;
34035;SDS011;63481;52.588;22.472;2023-03-11T01:31:31;11.20;;;5.00;;
34035;SDS011;63481;52.588;22.472;2023-03-11T01:32:24;8.10;;;4.60;;
34035;SDS011;63481;52.588;22.472;2023-03-11T01:33:18;10.30;;;4.80;;
34035;SDS011;63481;52.588;22.472;2023-03-11T01:34:11;8.00;;;4.80;;
34035;SDS011;63481;52.588;22.472;2023-03-11T01:35:04;8.80;;;5.20;;
34035;SDS011;63481;52.588;22.472;2023-03-11T01:35:57;8.70;;;5.30;;
34035;SDS011;63481;52.588;22.472;2023-03-11T01:36:52;10.00;;;5.50;;
34035;SDS011;63481;52.588;22.472;2023-03-11T01:37:45;11.40;;;5.70;;
34035;SDS011;63481;52.588;22.472;2023-03-11T01:38:39;10.80;;;5.10;;
34035;SDS011;63481;52.588;22.472;2023-03-11T01:39:32;11.50;;;6.30;;
34035;SDS011;63481;52.588;22.472;2023-03-11T01:40:26;9.80;;;5.60;;
34035;SDS011;63481;52.588;22.472;2023-03-11T01:41:33;11.80;;;6.40;;
34035;SDS011;63481;52.588;22.472;2023-03-11T01:42:27;10.90;;;5.90;;
34035;SDS011;63481;52.588;22.472;2023-03-11T01:44:33;10.40;;;6.40;;
34035;SDS011;63481;52.588;22.472;2023-03-11T01:45:40;10.80;;;5.90;;
34035;SDS011;63481;52.588;22.472;2023-03-11T01:47:58;14.80;;;7.10;;
34035;SDS011;63481;52.588;22.472;2023-03-11T01:48:57;11.40;;;6.70;;
34035;SDS011;63481;52.588;22.472;2023-03-11T01:49:55;15.30;;;7.40;;
34035;SDS011;63481;52.588;22.472;2023-03-11T01:50:48;14.10;;;6.70;;
34035;SDS011;63481;52.588;22.472;2023-03-11T01:51:43;11.70;;;7.00;;
34035;SDS011;63481;52.588;22.472;2023-03-11T01:52:41;13.90;;;7.80;;
34035;SDS011;63481;52.588;22.472;2023-03-11T01:53:35;12.70;;;7.40;;
34035;SDS011;63481;52.588;22.472;2023-03-11T01:54:31;15.30;;;7.90;;
34035;SDS011;63481;52.588;22.472;2023-03-11T01:55:27;13.20;;;7.50;;
34035;SDS011;63481;52.588;22.472;2023-03-11T01:56:20;11.80;;;7.80;;
34035;SDS011;63481;52.588;22.472;2023-03-11T01:57:14;13.90;;;7.80;;
34035;SDS011;63481;52.588;22.472;2023-03-11T01:58:08;13.60;;;8.00;;
34035;SDS011;63481;52.588;22.472;2023-03-11T01:59:07;12.70;;;8.50;;
34035;SDS011;63481;52.588;22.472;2023-03-11T02:00:03;12.70;;;8.60;;
34035;SDS011;63481;52.588;22.472;2023-03-11T02:01:04;13.50;;;9.30;;
34035;SDS011;63481;52.588;22.472;2023-03-11T02:02:01;13.60;;;8.70;;
34035;SDS011;63481;52.588;22.472;2023-03-11T02:03:01;15.80;;;8.70;;
34035;SDS011;63481;52.588;22.472;2023-03-11T02:04:02;13.50;;;8.40;;
34035;SDS011;63481;52.588;22.472;2023-03-11T02:04:55;14.40;;;8.80;;
34035;SDS011;63481;52.588;22.472;2023-03-11T02:05:49;13.70;;;8.30;;
34035;SDS011;63481;52.588;22.472;2023-03-11T02:06:45;17.70;;;9.00;;
34035;SDS011;63481;52.588;22.472;2023-03-11T02:07:39;15.20;;;8.80;;
34035;SDS011;63481;52.588;22.472;2023-03-11T02:08:32;14.20;;;8.80;;
34035;SDS011;63481;52.588;22.472;2023-03-11T02:09:26;15.30;;;8.70;;
34035;SDS011;63481;52.588;22.472;2023-03-11T02:10:18;14.40;;;9.40;;
34035;SDS011;63481;52.588;22.472;2023-03-11T02:11:15;14.40;;;9.80;;
34035;SDS011;63481;52.588;22.472;2023-03-11T02:12:20;16.30;;;9.10;;
34035;SDS011;63481;52.588;22.472;2023-03-11T02:13:14;15.50;;;9.90;;
34035;SDS011;63481;52.588;22.472;2023-03-11T02:14:08;15.40;;;10.30;;
34035;SDS011;63481;52.588;22.472;2023-03-11T02:15:02;15.80;;;10.50;;
34035;SDS011;63481;52.588;22.472;2023-03-11T02:15:56;17.70;;;10.90;;
34035;SDS011;63481;52.588;22.472;2023-03-11T02:16:51;17.20;;;11.00;;
34035;SDS011;63481;52.588;22.472;2023-03-11T02:17:44;17.60;;;11.50;;
34035;SDS011;63481;52.588;22.472;2023-03-11T02:18:37;18.00;;;11.00;;
34035;SDS011;63481;52.588;22.472;2023-03-11T02:21:52;14.60;;;10.30;;
34035;SDS011;63481;52.588;22.472;2023-03-11T02:22:46;20.10;;;11.80;;
34035;SDS011;63481;52.588;22.472;2023-03-11T02:25:54;23.70;;;13.00;;
34035;SDS011;63481;52.588;22.472;2023-03-11T02:27:57;19.70;;;12.10;;
34035;SDS011;63481;52.588;22.472;2023-03-11T02:28:52;18.10;;;12.50;;
34035;SDS011;63481;52.588;22.472;2023-03-11T02:29:45;18.40;;;12.90;;
34035;SDS011;63481;52.588;22.472;2023-03-11T02:30:41;18.70;;;12.90;;
34035;SDS011;63481;52.588;22.472;2023-03-11T02:31:36;19.20;;;13.90;;
34035;SDS011;63481;52.588;22.472;2023-03-11T02:32:31;19.60;;;13.80;;
34035;SDS011;63481;52.588;22.472;2023-03-11T02:33:25;24.20;;;14.90;;
34035;SDS011;63481;52.588;22.472;2023-03-11T02:34:27;19.50;;;13.20;;
34035;SDS011;63481;52.588;22.472;2023-03-11T02:35:22;19.20;;;14.70;;
34035;SDS011;63481;52.588;22.472;2023-03-11T02:36:29;21.00;;;14.60;;
34035;SDS011;63481;52.588;22.472;2023-03-11T02:37:34;21.70;;;14.70;;
34035;SDS011;63481;52.588;22.472;2023-03-11T02:38:29;24.90;;;15.20;;
34035;SDS011;63481;52.588;22.472;2023-03-11T02:40:44;21.80;;;15.20;;
34035;SDS011;63481;52.588;22.472;2023-03-11T02:41:43;22.60;;;14.90;;
34035;SDS011;63481;52.588;22.472;2023-03-11T02:42:38;23.50;;;16.00;;
34035;SDS011;63481;52.588;22.472;2023-03-11T02:43:36;21.40;;;14.80;;
34035;SDS011;63481;52.588;22.472;2023-03-11T02:44:32;24.00;;;17.20;;
34035;SDS011;63481;52.588;22.472;2023-03-11T02:45:26;24.40;;;16.60;;
34035;SDS011;63481;52.588;22.472;2023-03-11T02:46:21;22.30;;;16.80;;
34035;SDS011;63481;52.588;22.472;2023-03-11T02:47:14;29.20;;;17.80;;
34035;SDS011;63481;52.588;22.472;2023-03-11T02:48:08;25.50;;;17.50;;
34035;SDS011;63481;52.588;22.472;2023-03-11T02:49:04;24.30;;;17.40;;
34035;SDS011;63481;52.588;22.472;2023-03-11T02:49:58;24.20;;;16.20;;
34035;SDS011;63481;52.588;22.472;2023-03-11T02:50:51;25.10;;;17.50;;
34035;SDS011;63481;52.588;22.472;2023-03-11T02:51:44;23.20;;;17.10;;
34035;SDS011;63481;52.588;22.472;2023-03-11T02:52:37;28.30;;;17.20;;
34035;SDS011;63481;52.588;22.472;2023-03-11T02:53:32;27.50;;;17.90;;
34035;SDS011;63481;52.588;22.472;2023-03-11T02:54:30;24.90;;;17.50;;
34035;SDS011;63481;52.588;22.472;2023-03-11T02:55:23;26.40;;;17.90;;
34035;SDS011;63481;52.588;22.472;2023-03-11T02:56:16;25.80;;;17.40;;
34035;SDS011;63481;52.588;22.472;2023-03-11T02:57:08;25.10;;;17.50;;
34035;SDS011;63481;52.588;22.472;2023-03-11T02:58:01;23.20;;;17.40;;
34035;SDS011;63481;52.588;22.472;2023-03-11T02:58:54;24.40;;;17.40;;
34035;SDS011;63481;52.588;22.472;2023-03-11T02:59:47;25.90;;;17.90;;
34035;SDS011;63481;52.588;22.472;2023-03-11T03:00:39;28.40;;;18.80;;
34035;SDS011;63481;52.588;22.472;2023-03-11T03:01:32;24.80;;;18.00;;
34035;SDS011;63481;52.588;22.472;2023-03-11T03:02:25;24.80;;;17.80;;
34035;SDS011;63481;52.588;22.472;2023-03-11T03:03:18;24.30;;;17.10;;
34035;SDS011;63481;52.588;22.472;2023-03-11T03:04:11;23.80;;;18.00;;
34035;SDS011;63481;52.588;22.472;2023-03-11T03:05:04;25.90;;;17.90;;
34035;SDS011;63481;52.588;22.472;2023-03-11T03:05:58;25.50;;;18.10;;
34035;SDS011;63481;52.588;22.472;2023-03-11T03:06:50;26.60;;;18.70;;
34035;SDS011;63481;52.588;22.472;2023-03-11T03:07:43;31.40;;;19.60;;
34035;SDS011;63481;52.588;22.472;2023-03-11T03:08:37;26.40;;;18.40;;
34035;SDS011;63481;52.588;22.472;2023-03-11T03:09:30;26.90;;;18.80;;
34035;SDS011;63481;52.588;22.472;2023-03-11T03:10:23;28.00;;;18.90;;
34035;SDS011;63481;52.588;22.472;2023-03-11T03:11:16;27.40;;;18.40;;
34035;SDS011;63481;52.588;22.472;2023-03-11T03:12:09;24.00;;;17.80;;
34035;SDS011;63481;52.588;22.472;2023-03-11T03:13:02;27.10;;;19.10;;
34035;SDS011;63481;52.588;22.472;2023-03-11T03:13:55;26.00;;;18.90;;
34035;SDS011;63481;52.588;22.472;2023-03-11T03:14:48;25.00;;;19.00;;
34035;SDS011;63481;52.588;22.472;2023-03-11T03:15:41;31.20;;;20.90;;
34035;SDS011;63481;52.588;22.472;2023-03-11T03:16:34;27.90;;;19.30;;
34035;SDS011;63481;52.588;22.472;2023-03-11T03:17:27;25.30;;;18.70;;
34035;SDS011;63481;52.588;22.472;2023-03-11T03:18:20;29.40;;;20.60;;
34035;SDS011;63481;52.588;22.472;2023-03-11T03:19:12;29.20;;;19.80;;
34035;SDS011;63481;52.588;22.472;2023-03-11T03:20:06;28.60;;;20.50;;
34035;SDS011;63481;52.588;22.472;2023-03-11T03:21:03;27.60;;;20.60;;
34035;SDS011;63481;52.588;22.472;2023-03-11T03:21:56;28.80;;;20.50;;
34035;SDS011;63481;52.588;22.472;2023-03-11T03:22:49;30.60;;;21.10;;
34035;SDS011;63481;52.588;22.472;2023-03-11T03:23:43;28.70;;;20.50;;
34035;SDS011;63481;52.588;22.472;2023-03-11T03:24:35;28.70;;;21.10;;
34035;SDS011;63481;52.588;22.472;2023-03-11T03:25:28;28.50;;;21.10;;
34035;SDS011;63481;52.588;22.472;2023-03-11T03:26:22;31.30;;;21.30;;
34035;SDS011;63481;52.588;22.472;2023-03-11T03:27:15;28.90;;;20.80;;
34035;SDS011;63481;52.588;22.472;2023-03-11T03:28:08;33.00;;;21.20;;
34035;SDS011;63481;52.588;22.472;2023-03-11T03:29:03;29.30;;;21.90;;
34035;SDS011;63481;52.588;22.472;2023-03-11T03:29:56;34.20;;;22.20;;
34035;SDS011;63481;52.588;22.472;2023-03-11T03:30:49;32.10;;;22.20;;
34035;SDS011;63481;52.588;22.472;2023-03-11T03:31:42;27.00;;;20.50;;
34035;SDS011;63481;52.588;22.472;2023-03-11T03:32:35;28.90;;;21.60;;
34035;SDS011;63481;52.588;22.472;2023-03-11T03:33:29;30.60;;;21.60;;
34035;SDS011;63481;52.588;22.472;2023-03-11T03:34:22;30.00;;;20.90;;
34035;SDS011;63481;52.588;22.472;2023-03-11T03:35:15;34.70;;;23.00;;
34035;SDS011;63481;52.588;22.472;2023-03-11T03:36:43;30.90;;;21.70;;
34035;SDS011;63481;52.588;22.472;2023-03-11T03:37:36;34.00;;;22.80;;
34035;SDS011;63481;52.588;22.472;2023-03-11T03:38:30;30.80;;;23.50;;
34035;SDS011;63481;52.588;22.472;2023-03-11T03:39:22;34.80;;;23.20;;
34035;SDS011;63481;52.588;22.472;2023-03-11T03:40:15;31.90;;;23.40;;
34035;SDS011;63481;52.588;22.472;2023-03-11T03:41:08;31.30;;;24.20;;
34035;SDS011;63481;52.588;22.472;2023-03-11T03:42:03;34.60;;;24.30;;
34035;SDS011;63481;52.588;22.472;2023-03-11T03:42:56;37.70;;;25.10;;
34035;SDS011;63481;52.588;22.472;2023-03-11T03:43:49;36.70;;;24.10;;
34035;SDS011;63481;52.588;22.472;2023-03-11T03:44:42;36.00;;;23.40;;
34035;SDS011;63481;52.588;22.472;2023-03-11T03:45:35;35.30;;;25.00;;
34035;SDS011;63481;52.588;22.472;2023-03-11T03:46:28;33.20;;;24.10;;
34035;SDS011;63481;52.588;22.472;2023-03-11T03:47:23;35.90;;;24.20;;
34035;SDS011;63481;52.588;22.472;2023-03-11T03:48:16;32.80;;;24.40;;
34035;SDS011;63481;52.588;22.472;2023-03-11T03:49:09;34.80;;;24.40;;
34035;SDS011;63481;52.588;22.472;2023-03-11T03:50:03;32.90;;;24.60;;
34035;SDS011;63481;52.588;22.472;2023-03-11T03:51:01;32.10;;;24.50;;
34035;SDS011;63481;52.588;22.472;2023-03-11T03:51:58;35.00;;;24.30;;
34035;SDS011;63481;52.588;22.472;2023-03-11T03:52:56;33.40;;;23.50;;
34035;SDS011;63481;52.588;22.472;2023-03-11T03:53:49;35.20;;;25.50;;
34035;SDS011;63481;52.588;22.472;2023-03-11T03:54:42;33.40;;;24.00;;
34035;SDS011;63481;52.588;22.472;2023-03-11T03:55:35;30.90;;;23.10;;
34035;SDS011;63481;52.588;22.472;2023-03-11T03:56:28;33.70;;;24.20;;
34035;SDS011;63481;52.588;22.472;2023-03-11T03:57:21;36.30;;;25.70;;
34035;SDS011;63481;52.588;22.472;2023-03-11T03:58:13;33.50;;;24.80;;
34035;SDS011;63481;52.588;22.472;2023-03-11T03:59:08;35.30;;;25.50;;
34035;SDS011;63481;52.588;22.472;2023-03-11T04:00:04;35.40;;;25.10;;
34035;SDS011;63481;52.588;22.472;2023-03-11T04:01:06;35.90;;;25.50;;
34035;SDS011;63481;52.588;22.472;2023-03-11T04:01:59;35.30;;;25.80;;
34035;SDS011;63481;52.588;22.472;2023-03-11T04:02:53;32.90;;;24.30;;
34035;SDS011;63481;52.588;22.472;2023-03-11T04:03:51;36.60;;;26.40;;
34035;SDS011;63481;52.588;22.472;2023-03-11T04:04:44;36.00;;;26.10;;
34035;SDS011;63481;52.588;22.472;2023-03-11T04:05:37;36.00;;;26.50;;
34035;SDS011;63481;52.588;22.472;2023-03-11T04:06:29;37.20;;;26.60;;
34035;SDS011;63481;52.588;22.472;2023-03-11T04:08:24;36.10;;;26.40;;
34035;SDS011;63481;52.588;22.472;2023-03-11T04:09:17;35.10;;;24.90;;
34035;SDS011;63481;52.588;22.472;2023-03-11T04:10:12;34.30;;;25.90;;
34035;SDS011;63481;52.588;22.472;2023-03-11T04:11:06;34.60;;;25.50;;
34035;SDS011;63481;52.588;22.472;2023-03-11T04:11:59;32.40;;;24.50;;
34035;SDS011;63481;52.588;22.472;2023-03-11T04:12:52;33.70;;;26.30;;
34035;SDS011;63481;52.588;22.472;2023-03-11T04:13:45;35.00;;;26.00;;
34035;SDS011;63481;52.588;22.472;2023-03-11T04:14:38;35.00;;;25.50;;
34035;SDS011;63481;52.588;22.472;2023-03-11T04:15:30;37.60;;;24.80;;
34035;SDS011;63481;52.588;22.472;2023-03-11T04:16:24;34.10;;;26.30;;
34035;SDS011;63481;52.588;22.472;2023-03-11T04:17:20;32.70;;;25.70;;
34035;SDS011;63481;52.588;22.472;2023-03-11T04:18:13;34.10;;;25.60;;
34035;SDS011;63481;52.588;22.472;2023-03-11T04:19:06;34.50;;;25.40;;
34035;SDS011;63481;52.588;22.472;2023-03-11T04:20:00;33.10;;;25.90;;
34035;SDS011;63481;52.588;22.472;2023-03-11T04:20:53;37.70;;;26.20;;
34035;SDS011;63481;52.588;22.472;2023-03-11T04:21:45;33.20;;;25.20;;
34035;SDS011;63481;52.588;22.472;2023-03-11T04:22:38;36.80;;;25.40;;
34035;SDS011;63481;52.588;22.472;2023-03-11T04:23:31;37.20;;;26.60;;
34035;SDS011;63481;52.588;22.472;2023-03-11T04:24:24;38.70;;;27.20;;
34035;SDS011;63481;52.588;22.472;2023-03-11T04:25:17;41.60;;;27.00;;
34035;SDS011;63481;52.588;22.472;2023-03-11T04:26:10;35.50;;;25.90;;
34035;SDS011;63481;52.588;22.472;2023-03-11T04:27:03;37.90;;;27.10;;
34035;SDS011;63481;52.588;22.472;2023-03-11T04:27:56;37.40;;;27.80;;
34035;SDS011;63481;52.588;22.472;2023-03-11T04:28:49;35.80;;;26.40;;
34035;SDS011;63481;52.588;22.472;2023-03-11T04:29:42;38.40;;;27.60;;
34035;SDS011;63481;52.588;22.472;2023-03-11T04:30:34;38.30;;;26.70;;
34035;SDS011;63481;52.588;22.472;2023-03-11T04:31:28;35.50;;;26.40;;
34035;SDS011;63481;52.588;22.472;2023-03-11T04:32:20;35.00;;;26.20;;
34035;SDS011;63481;52.588;22.472;2023-03-11T04:33:14;35.90;;;26.00;;
34035;SDS011;63481;52.588;22.472;2023-03-11T04:34:07;34.90;;;25.70;;
34035;SDS011;63481;52.588;22.472;2023-03-11T04:35:00;38.40;;;26.80;;
34035;SDS011;63481;52.588;22.472;2023-03-11T04:35:53;36.20;;;26.50;;
34035;SDS011;63481;52.588;22.472;2023-03-11T04:36:46;36.40;;;26.40;;
34035;SDS011;63481;52.588;22.472;2023-03-11T04:37:40;38.60;;;26.10;;
34035;SDS011;63481;52.588;22.472;2023-03-11T04:38:33;38.70;;;25.80;;
34035;SDS011;63481;52.588;22.472;2023-03-11T04:39:26;37.00;;;26.50;;
34035;SDS011;63481;52.588;22.472;2023-03-11T04:40:19;35.20;;;26.30;;
34035;SDS011;63481;52.588;22.472;2023-03-11T04:41:12;39.20;;;26.80;;
34035;SDS011;63481;52.588;22.472;2023-03-11T04:42:06;35.70;;;26.00;;
34035;SDS011;63481;52.588;22.472;2023-03-11T04:42:58;37.80;;;27.10;;
34035;SDS011;63481;52.588;22.472;2023-03-11T04:43:51;38.60;;;26.30;;
34035;SDS011;63481;52.588;22.472;2023-03-11T04:44:45;37.00;;;28.20;;
34035;SDS011;63481;52.588;22.472;2023-03-11T04:45:38;39.10;;;27.50;;
34035;SDS011;63481;52.588;22.472;2023-03-11T04:46:36;35.20;;;25.90;;
34035;SDS011;63481;52.588;22.472;2023-03-11T04:47:30;35.00;;;26.50;;
34035;SDS011;63481;52.588;22.472;2023-03-11T04:48:23;35.30;;;26.80;;
34035;SDS011;63481;52.588;22.472;2023-03-11T04:49:18;36.90;;;27.00;;
34035;SDS011;63481;52.588;22.472;2023-03-11T04:50:11;38.60;;;26.60;;
34035;SDS011;63481;52.588;22.472;2023-03-11T04:51:04;38.20;;;26.10;;
34035;SDS011;63481;52.588;22.472;2023-03-11T04:51:57;37.90;;;27.10;;
34035;SDS011;63481;52.588;22.472;2023-03-11T04:52:50;38.10;;;26.40;;
34035;SDS011;63481;52.588;22.472;2023-03-11T04:53:43;41.00;;;27.10;;
34035;SDS011;63481;52.588;22.472;2023-03-11T04:54:36;40.80;;;27.50;;
34035;SDS011;63481;52.588;22.472;2023-03-11T04:55:29;39.90;;;28.00;;
34035;SDS011;63481;52.588;22.472;2023-03-11T04:56:22;37.20;;;26.40;;
34035;SDS011;63481;52.588;22.472;2023-03-11T04:57:15;36.60;;;26.40;;
34035;SDS011;63481;52.588;22.472;2023-03-11T04:58:08;37.30;;;26.60;;
34035;SDS011;63481;52.588;22.472;2023-03-11T04:59:01;38.10;;;26.70;;
34035;SDS011;63481;52.588;22.472;2023-03-11T04:59:54;37.50;;;26.40;;
34035;SDS011;63481;52.588;22.472;2023-03-11T05:00:47;35.70;;;26.60;;
34035;SDS011;63481;52.588;22.472;2023-03-11T05:01:40;36.90;;;26.90;;
34035;SDS011;63481;52.588;22.472;2023-03-11T05:02:34;34.20;;;25.00;;
34035;SDS011;63481;52.588;22.472;2023-03-11T05:03:27;38.70;;;27.40;;
34035;SDS011;63481;52.588;22.472;2023-03-11T05:04:20;33.40;;;25.70;;
34035;SDS011;63481;52.588;22.472;2023-03-11T05:05:12;34.50;;;25.70;;
34035;SDS011;63481;52.588;22.472;2023-03-11T05:06:05;38.40;;;26.80;;
34035;SDS011;63481;52.588;22.472;2023-03-11T05:06:58;36.00;;;26.40;;
34035;SDS011;63481;52.588;22.472;2023-03-11T05:07:51;37.70;;;25.80;;
34035;SDS011;63481;52.588;22.472;2023-03-11T05:08:44;32.10;;;24.40;;
34035;SDS011;63481;52.588;22.472;2023-03-11T05:09:37;32.30;;;24.60;;
34035;SDS011;63481;52.588;22.472;2023-03-11T05:10:30;37.00;;;25.00;;
34035;SDS011;63481;52.588;22.472;2023-03-11T05:11:23;33.60;;;24.20;;
34035;SDS011;63481;52.588;22.472;2023-03-11T05:12:17;35.60;;;24.70;;
34035;SDS011;63481;52.588;22.472;2023-03-11T05:13:13;32.30;;;24.20;;
34035;SDS011;63481;52.588;22.472;2023-03-11T05:14:06;32.70;;;24.80;;
34035;SDS011;63481;52.588;22.472;2023-03-11T05:14:59;34.00;;;25.10;;
34035;SDS011;63481;52.588;22.472;2023-03-11T05:15:52;32.60;;;24.60;;
34035;SDS011;63481;52.588;22.472;2023-03-11T05:16:45;36.70;;;26.10;;
34035;SDS011;63481;52.588;22.472;2023-03-11T05:17:37;36.20;;;26.00;;
34035;SDS011;63481;52.588;22.472;2023-03-11T05:18:30;33.80;;;25.00;;
34035;SDS011;63481;52.588;22.472;2023-03-11T05:19:23;36.10;;;25.20;;
34035;SDS011;63481;52.588;22.472;2023-03-11T05:20:23;36.20;;;26.00;;
34035;SDS011;63481;52.588;22.472;2023-03-11T05:21:16;40.70;;;24.80;;
34035;SDS011;63481;52.588;22.472;2023-03-11T05:22:10;34.90;;;24.50;;
34035;SDS011;63481;52.588;22.472;2023-03-11T05:23:03;34.30;;;25.00;;
34035;SDS011;63481;52.588;22.472;2023-03-11T05:23:57;37.80;;;26.30;;
34035;SDS011;63481;52.588;22.472;2023-03-11T05:24:49;36.40;;;25.80;;